createdAt,value
2018-02-18T00:00:34.498Z,53.08
2018-02-18T00:03:02.200Z,53.20
2018-02-18T00:05:29.815Z,51.90
2018-02-18T00:07:57.407Z,49.85
2018-02-18T00:10:25.785Z,51.63
2018-02-18T00:12:54.098Z,45.22
2018-02-18T00:15:22.643Z,46.70
2018-02-18T00:17:51.100Z,49.15
2018-02-18T00:20:18.856Z,47.28
2018-02-18T00:22:46.505Z,50.55
2018-02-18T00:25:14.183Z,50.75
2018-02-18T00:27:41.784Z,50.85
2018-02-18T00:30:09.529Z,47.05
2018-02-18T00:32:37.081Z,42.45
2018-02-18T00:35:04.727Z,40.17
2018-02-18T00:37:32.428Z,37.90
2018-02-18T00:40:00.094Z,38.08
2018-02-18T00:42:27.737Z,41.17
2018-02-18T00:44:55.543Z,38.97
2018-02-18T00:47:23.242Z,39.75
2018-02-18T00:49:51.617Z,37.17
2018-02-18T00:52:19.280Z,39.58
2018-02-18T00:54:46.944Z,39.28
2018-02-18T00:57:15.350Z,37.72
2018-02-18T00:59:43.087Z,39.60
2018-02-18T01:02:10.875Z,36.45
2018-02-18T01:04:38.413Z,39.28
2018-02-18T01:07:06.197Z,35.45
2018-02-18T01:09:33.937Z,37.15
2018-02-18T01:12:01.599Z,36.05
2018-02-18T01:14:29.406Z,36.70
2018-02-18T01:16:57.060Z,35.42
2018-02-18T01:19:24.763Z,30.73
2018-02-18T01:21:53.139Z,31.23
2018-02-18T01:24:20.644Z,33.47
2018-02-18T01:26:48.183Z,32.70
2018-02-18T01:29:15.937Z,32.55
2018-02-18T01:31:43.636Z,29.90
2018-02-18T01:34:11.187Z,34.00
2018-02-18T01:36:38.932Z,31.90
2018-02-18T01:39:06.497Z,31.77
2018-02-18T01:41:34.187Z,33.35
2018-02-18T01:44:01.787Z,31.60
2018-02-18T01:46:30.229Z,29.70
2018-02-18T01:48:57.872Z,31.05
2018-02-18T01:51:25.403Z,30.58
2018-02-18T01:53:52.938Z,29.45
2018-02-18T01:56:20.431Z,32.88
2018-02-18T01:58:49.517Z,31.20
2018-02-18T02:01:17.794Z,30.98
2018-02-18T02:03:45.283Z,32.10
2018-02-18T02:06:12.923Z,31.75
2018-02-18T02:08:40.513Z,29.83
2018-02-18T02:11:08.002Z,33.53
2018-02-18T02:13:35.810Z,34.08
2018-02-18T02:16:03.397Z,32.38
2018-02-18T02:18:30.883Z,31.73
2018-02-18T02:20:58.592Z,33.28
2018-02-18T02:23:27.015Z,32.53
2018-02-18T02:25:55.660Z,31.58
2018-02-18T02:28:23.398Z,31.98
2018-02-18T02:30:52.057Z,31.85
2018-02-18T02:33:19.556Z,34.92
2018-02-18T02:35:47.642Z,35.10
2018-02-18T02:38:15.195Z,35.13
2018-02-18T02:40:42.762Z,35.40
2018-02-18T02:43:11.007Z,35.60
2018-02-18T02:45:38.490Z,34.10
2018-02-18T02:48:06.553Z,32.83
2018-02-18T02:50:34.119Z,33.80
2018-02-18T02:53:03.015Z,33.60
2018-02-18T02:55:31.885Z,34.03
2018-02-18T02:57:59.862Z,32.53
2018-02-18T03:00:27.817Z,32.58
2018-02-18T03:02:55.957Z,33.58
2018-02-18T03:05:23.595Z,35.45
2018-02-18T03:07:51.537Z,32.00
2018-02-18T03:10:19.473Z,33.25
2018-02-18T03:12:47.342Z,32.58
2018-02-18T03:15:15.150Z,33.78
2018-02-18T03:17:43.111Z,31.77
2018-02-18T03:20:10.838Z,32.63
2018-02-18T03:22:39.347Z,31.92
2018-02-18T03:25:07.983Z,32.50
2018-02-18T03:27:35.703Z,32.78
2018-02-18T03:30:03.630Z,33.65
2018-02-18T03:32:31.399Z,33.03
2018-02-18T03:34:59.193Z,31.62
2018-02-18T03:37:27.268Z,36.05
2018-02-18T03:39:55.336Z,31.70
2018-02-18T03:42:23.416Z,31.58
2018-02-18T03:44:51.177Z,33.15
2018-02-18T03:47:19.242Z,34.03
2018-02-18T03:49:47.213Z,33.17
2018-02-18T03:52:15.487Z,32.80
2018-02-18T03:54:43.375Z,34.53
2018-02-18T03:57:11.060Z,31.92
2018-02-18T03:59:39.600Z,35.22
2018-02-18T04:02:07.488Z,32.15
2018-02-18T04:04:36.071Z,33.50
2018-02-18T04:07:03.835Z,33.95
2018-02-18T04:09:32.510Z,33.53
2018-02-18T04:12:00.236Z,33.78
2018-02-18T04:14:28.048Z,33.50
2018-02-18T04:16:55.900Z,37.70
2018-02-18T04:19:24.598Z,33.35
2018-02-18T04:21:52.335Z,33.15
2018-02-18T04:24:20.417Z,33.60
2018-02-18T04:26:48.386Z,33.90
2018-02-18T04:29:16.158Z,33.15
2018-02-18T04:31:44.118Z,33.25
2018-02-18T04:34:11.990Z,36.15
2018-02-18T04:36:39.654Z,34.90
2018-02-18T04:39:07.592Z,32.60
2018-02-18T04:41:35.484Z,33.05
2018-02-18T04:44:04.358Z,33.30
2018-02-18T04:46:32.223Z,34.47
2018-02-18T04:49:00.158Z,33.00
2018-02-18T04:51:28.903Z,32.05
2018-02-18T04:53:56.541Z,32.25
2018-02-18T04:56:24.523Z,33.00
2018-02-18T04:58:53.303Z,36.22
2018-02-18T05:01:20.894Z,31.58
2018-02-18T05:03:48.721Z,34.25
2018-02-18T05:06:16.611Z,34.40
2018-02-18T05:08:44.787Z,31.80
2018-02-18T05:11:13.966Z,32.55
2018-02-18T05:13:42.665Z,33.75
2018-02-18T05:16:10.620Z,31.20
2018-02-18T05:18:39.120Z,33.28
2018-02-18T05:21:06.885Z,34.30
2018-02-18T05:23:34.692Z,35.38
2018-02-18T05:26:03.408Z,35.75
2018-02-18T05:28:31.931Z,34.40
2018-02-18T05:30:59.871Z,32.97
2018-02-18T05:33:27.528Z,33.05
2018-02-18T05:35:55.192Z,36.72
2018-02-18T05:38:22.880Z,35.22
2018-02-18T05:40:50.656Z,33.78
2018-02-18T05:43:19.304Z,35.85
2018-02-18T05:45:47.884Z,34.10
2018-02-18T05:48:15.847Z,34.28
2018-02-18T05:50:43.741Z,34.03
2018-02-18T05:53:12.291Z,36.22
2018-02-18T05:55:40.683Z,36.60
2018-02-18T05:58:08.632Z,36.95
2018-02-18T06:00:37.135Z,34.47
2018-02-18T06:03:04.795Z,36.20
2018-02-18T06:05:32.546Z,37.47
2018-02-18T06:08:01.164Z,37.42
2018-02-18T06:10:29.828Z,35.08
2018-02-18T06:12:58.428Z,38.95
2018-02-18T06:15:26.068Z,37.17
2018-02-18T06:17:53.684Z,35.33
2018-02-18T06:20:21.705Z,36.13
2018-02-18T06:22:49.590Z,37.70
2018-02-18T06:25:17.297Z,36.45
2018-02-18T06:27:45.077Z,36.38
2018-02-18T06:30:13.669Z,36.67
2018-02-18T06:32:41.552Z,35.03
2018-02-18T06:35:09.335Z,36.88
2018-02-18T06:37:37.274Z,36.15
2018-02-18T06:40:05.852Z,37.17
2018-02-18T06:42:33.596Z,36.30
2018-02-18T06:45:01.399Z,38.50
2018-02-18T06:47:29.276Z,39.15
2018-02-18T06:49:57.054Z,38.45
2018-02-18T06:52:24.784Z,40.40
2018-02-18T06:54:52.577Z,37.92
2018-02-18T06:57:21.158Z,40.12
2018-02-18T06:59:49.131Z,40.78
2018-02-18T07:02:16.997Z,39.35
2018-02-18T07:04:44.922Z,40.03
2018-02-18T07:07:12.904Z,37.15
2018-02-18T07:09:40.690Z,38.47
2018-02-18T07:12:09.592Z,40.97
2018-02-18T07:14:37.513Z,37.95
2018-02-18T07:17:05.216Z,36.92
2018-02-18T07:19:33.041Z,36.85
2018-02-18T07:22:01.624Z,36.10
2018-02-18T07:24:29.436Z,34.25
2018-02-18T07:26:57.198Z,37.05
2018-02-18T07:29:24.930Z,35.20
2018-02-18T07:31:53.333Z,34.72
2018-02-18T07:34:21.103Z,33.53
2018-02-18T07:36:48.973Z,32.17
2018-02-18T07:39:16.672Z,32.35
2018-02-18T07:41:45.325Z,32.42
2018-02-18T07:44:13.184Z,31.10
2018-02-18T07:46:41.004Z,31.58
2018-02-18T07:49:09.483Z,29.30
2018-02-18T07:51:46.408Z,28.73
2018-02-18T07:54:18.241Z,31.87
2018-02-18T07:56:46.304Z,30.75
2018-02-18T07:59:14.562Z,29.05
2018-02-18T08:01:43.127Z,28.50
2018-02-18T08:04:11.422Z,27.83
2018-02-18T08:06:39.020Z,27.65
2018-02-18T08:09:07.306Z,25.90
2018-02-18T08:11:34.903Z,26.95
2018-02-18T08:14:02.430Z,28.33
2018-02-18T08:16:29.914Z,28.08
2018-02-18T08:18:57.592Z,26.80
2018-02-18T08:21:25.082Z,27.65
2018-02-18T08:23:53.334Z,26.30
2018-02-18T08:26:21.485Z,25.48
2018-02-18T08:28:49.021Z,24.08
2018-02-18T08:31:16.631Z,24.27
2018-02-18T08:33:44.290Z,23.25
2018-02-18T08:36:11.922Z,23.00
2018-02-18T08:38:39.596Z,23.52
2018-02-18T08:41:08.534Z,22.48
2018-02-18T08:43:36.790Z,22.35
2018-02-18T08:46:04.316Z,22.37
2018-02-18T08:48:32.326Z,21.40
2018-02-18T08:50:59.851Z,22.60
2018-02-18T08:53:27.451Z,21.85
2018-02-18T08:55:55.431Z,22.02
2018-02-18T08:58:22.990Z,21.80
2018-02-18T09:00:51.242Z,20.40
2018-02-18T09:03:18.766Z,21.83
2018-02-18T09:05:46.451Z,19.83
2018-02-18T09:08:13.959Z,22.62
2018-02-18T09:10:42.224Z,21.70
2018-02-18T09:13:10.536Z,21.42
2018-02-18T09:15:38.030Z,20.45
2018-02-18T09:18:05.646Z,21.33
2018-02-18T09:20:33.263Z,21.92
2018-02-18T09:23:01.822Z,19.58
2018-02-18T09:25:29.689Z,21.67
2018-02-18T09:27:57.390Z,17.45
2018-02-18T09:30:25.710Z,20.95
2018-02-18T09:32:53.276Z,19.77
2018-02-18T09:35:20.863Z,18.73
2018-02-18T09:37:48.371Z,18.45
2018-02-18T09:40:15.942Z,18.65
2018-02-18T09:42:44.136Z,19.35
2018-02-18T09:45:12.298Z,18.55
2018-02-18T09:47:39.874Z,18.60
2018-02-18T09:50:07.422Z,17.65
2018-02-18T09:52:35.516Z,17.60
2018-02-18T09:55:03.418Z,17.40
2018-02-18T09:57:30.942Z,17.60
2018-02-18T09:59:58.688Z,17.35
2018-02-18T10:02:26.237Z,16.20
2018-02-18T10:04:54.012Z,18.13
2018-02-18T10:07:22.342Z,18.10
2018-02-18T10:09:50.610Z,20.13
2018-02-18T10:12:18.424Z,18.80
2018-02-18T10:14:46.103Z,18.33
2018-02-18T10:17:13.866Z,18.33
2018-02-18T10:19:42.551Z,17.92
2018-02-18T10:22:10.886Z,18.05
2018-02-18T10:24:39.139Z,19.52
2018-02-18T10:27:07.229Z,18.60
2018-02-18T10:29:34.992Z,17.85
2018-02-18T10:32:04.628Z,17.90
2018-02-18T10:34:32.163Z,19.80
2018-02-18T10:37:01.254Z,19.77
2018-02-18T10:39:28.782Z,20.10
2018-02-18T10:41:56.413Z,19.27
2018-02-18T10:44:25.438Z,20.15
2018-02-18T10:46:58.460Z,21.62
2018-02-18T10:49:42.193Z,20.83
2018-02-18T10:52:11.944Z,23.60
2018-02-18T10:54:42.128Z,22.13
2018-02-18T10:57:09.966Z,23.40
2018-02-18T10:59:37.522Z,22.58
2018-02-18T11:02:06.239Z,23.33
2018-02-18T11:04:34.470Z,24.90
2018-02-18T11:07:03.029Z,22.80
2018-02-18T11:09:31.791Z,22.48
2018-02-18T11:11:59.583Z,22.23
2018-02-18T11:14:27.122Z,20.15
2018-02-18T11:16:55.414Z,23.50
2018-02-18T11:19:23.041Z,23.52
2018-02-18T11:21:53.468Z,24.67
2018-02-18T11:24:21.018Z,24.50
2018-02-18T11:26:48.662Z,24.30
2018-02-18T11:29:16.764Z,23.98
2018-02-18T11:31:44.626Z,23.20
2018-02-18T11:34:13.216Z,24.60
2018-02-18T11:36:41.591Z,24.07
2018-02-18T11:39:10.231Z,24.73
2018-02-18T11:41:37.936Z,23.87
2018-02-18T11:44:05.935Z,22.30
2018-02-18T11:46:33.980Z,22.47
2018-02-18T11:49:02.874Z,22.20
2018-02-18T11:51:31.442Z,20.97
2018-02-18T11:53:59.505Z,23.87
2018-02-18T11:56:27.604Z,22.27
2018-02-18T11:58:55.523Z,23.10
2018-02-18T12:01:24.534Z,21.73
2018-02-18T12:03:52.340Z,21.37
2018-02-18T12:06:20.422Z,22.60
2018-02-18T12:08:49.188Z,18.93
2018-02-18T12:11:19.216Z,20.73
2018-02-18T12:13:47.589Z,19.70
2018-02-18T12:16:15.160Z,19.30
2018-02-18T12:18:43.214Z,19.53
2018-02-18T12:21:11.160Z,19.37
2018-02-18T12:23:39.256Z,20.10
2018-02-18T12:26:07.633Z,18.63
2018-02-18T12:28:36.935Z,17.87
2018-02-18T12:31:04.887Z,19.57
2018-02-18T12:33:33.184Z,18.53
2018-02-18T12:36:00.890Z,17.57
2018-02-18T12:38:29.243Z,17.50
2018-02-18T12:40:57.189Z,17.40
2018-02-18T12:43:25.672Z,17.70
2018-02-18T12:45:53.740Z,17.50
2018-02-18T12:48:22.022Z,15.80
2018-02-18T12:50:49.634Z,15.73
2018-02-18T12:53:18.263Z,16.40
2018-02-18T12:55:46.329Z,15.40
2018-02-18T12:58:13.938Z,16.03
2018-02-18T13:00:42.202Z,13.83
2018-02-18T13:03:09.806Z,15.80
2018-02-18T13:05:37.306Z,13.50
2018-02-18T13:08:05.414Z,15.70
2018-02-18T13:10:32.903Z,15.97
2018-02-18T13:13:00.434Z,13.57
2018-02-18T13:15:28.134Z,14.90
2018-02-18T13:17:55.710Z,14.57
2018-02-18T13:20:23.211Z,14.43
2018-02-18T13:22:50.718Z,13.50
2018-02-18T13:25:18.207Z,11.03
2018-02-18T13:27:45.726Z,11.97
2018-02-18T13:30:13.216Z,12.77
2018-02-18T13:32:40.871Z,13.10
2018-02-18T13:35:09.279Z,12.37
2018-02-18T13:37:36.782Z,11.43
2018-02-18T13:40:04.447Z,12.43
2018-02-18T13:42:32.931Z,12.50
2018-02-18T13:45:00.779Z,12.43
2018-02-18T13:47:28.651Z,13.53
2018-02-18T13:49:56.998Z,12.50
2018-02-18T13:52:24.689Z,12.35
2018-02-18T13:54:53.593Z,12.70
2018-02-18T13:57:24.087Z,12.60
2018-02-18T13:59:51.887Z,13.55
2018-02-18T14:02:20.456Z,11.98
2018-02-18T14:04:48.269Z,11.50
2018-02-18T14:07:15.954Z,11.80
2018-02-18T14:09:44.585Z,11.73
2018-02-18T14:12:13.183Z,13.43
2018-02-18T14:14:40.928Z,13.63
2018-02-18T14:17:08.801Z,12.70
2018-02-18T14:19:36.440Z,12.60
2018-02-18T14:22:04.065Z,11.50
2018-02-18T14:24:31.881Z,12.13
2018-02-18T14:26:59.652Z,11.70
2018-02-18T14:29:27.624Z,12.30
2018-02-18T14:31:55.585Z,12.02
2018-02-18T14:34:24.154Z,11.18
2018-02-18T14:36:52.367Z,11.20
2018-02-18T14:39:20.290Z,11.80
2018-02-18T14:42:00.817Z,10.63
2018-02-18T14:44:40.424Z,10.83
2018-02-18T14:47:19.890Z,11.07
2018-02-18T14:49:59.499Z,11.27
2018-02-18T14:52:38.979Z,9.70
2018-02-18T14:55:28.075Z,12.13
2018-02-18T14:57:56.660Z,11.60
2018-02-18T15:00:25.038Z,11.73
2018-02-18T15:02:52.865Z,11.63
2018-02-18T15:05:20.476Z,11.77
2018-02-18T15:07:48.878Z,11.03
2018-02-18T15:10:16.490Z,8.40
2018-02-18T15:12:44.092Z,8.67
2018-02-18T15:15:11.648Z,9.40
2018-02-18T15:17:39.342Z,10.40
2018-02-18T15:20:07.044Z,10.40
2018-02-18T15:22:34.671Z,9.93
2018-02-18T15:25:02.408Z,10.80
2018-02-18T15:27:29.960Z,10.40
2018-02-18T15:29:57.554Z,10.00
2018-02-18T15:32:25.245Z,10.40
2018-02-18T15:34:53.567Z,9.97
2018-02-18T15:37:21.272Z,10.50
2018-02-18T15:39:48.918Z,10.40
2018-02-18T15:42:16.491Z,12.00
2018-02-18T15:44:44.975Z,10.80
2018-02-18T15:47:12.618Z,9.83
2018-02-18T15:49:41.074Z,10.87
2018-02-18T15:52:08.652Z,9.80
2018-02-18T15:54:36.353Z,9.60
2018-02-18T15:57:04.804Z,9.43
2018-02-18T15:59:32.493Z,10.38
2018-02-18T16:01:59.986Z,10.13
2018-02-18T16:04:28.413Z,11.23
2018-02-18T16:06:59.174Z,10.18
2018-02-18T16:09:28.230Z,10.00
2018-02-18T16:11:59.351Z,11.65
2018-02-18T16:14:26.960Z,11.90
2018-02-18T16:16:56.818Z,12.50
2018-02-18T16:19:29.024Z,11.43
2018-02-18T16:21:57.712Z,11.60
2018-02-18T16:24:26.312Z,11.50
2018-02-18T16:26:56.772Z,10.40
2018-02-18T16:29:28.090Z,11.82
2018-02-18T16:31:57.399Z,12.15
2018-02-18T16:34:28.232Z,12.05
2018-02-18T16:36:56.663Z,11.73
2018-02-18T16:39:28.044Z,11.70
2018-02-18T16:41:58.709Z,12.63
2018-02-18T16:44:28.732Z,12.98
2018-02-18T16:46:56.421Z,11.48
2018-02-18T16:49:28.059Z,11.12
2018-02-18T16:51:59.559Z,10.93
2018-02-18T16:54:30.256Z,11.75
2018-02-18T16:56:57.884Z,10.93
2018-02-18T16:59:25.524Z,12.02
2018-02-18T17:01:53.281Z,12.52
2018-02-18T17:04:22.737Z,13.20
2018-02-18T17:06:52.230Z,13.70
2018-02-18T17:09:23.247Z,12.82
2018-02-18T17:11:50.874Z,13.48
2018-02-18T17:14:19.834Z,14.05
2018-02-18T17:16:47.961Z,13.80
2018-02-18T17:19:15.840Z,13.38
2018-02-18T17:21:43.535Z,13.25
2018-02-18T17:24:11.510Z,13.65
2018-02-18T17:26:39.288Z,13.50
2018-02-18T17:29:07.853Z,14.60
2018-02-18T17:31:36.352Z,14.05
2018-02-18T17:34:04.491Z,13.62
2018-02-18T17:36:32.628Z,13.60
2018-02-18T17:39:03.582Z,13.93
2018-02-18T17:41:34.993Z,12.55
2018-02-18T17:44:07.090Z,13.93
2018-02-18T17:46:37.922Z,14.13
2018-02-18T17:49:10.948Z,14.00
2018-02-18T17:51:40.226Z,13.10
2018-02-18T17:54:09.768Z,13.32
2018-02-18T17:56:37.387Z,14.23
2018-02-18T17:59:07.168Z,14.13
2018-02-18T18:01:35.392Z,14.93
2018-02-18T18:04:03.971Z,13.95
2018-02-18T18:06:34.159Z,14.90
2018-02-18T18:09:06.407Z,14.82
2018-02-18T18:11:36.071Z,14.00
2018-02-18T18:14:05.333Z,14.27
2018-02-18T18:16:33.504Z,14.70
2018-02-18T18:19:02.536Z,13.77
2018-02-18T18:21:31.000Z,13.62
2018-02-18T18:23:58.715Z,14.93
2018-02-18T18:26:26.210Z,13.65
2018-02-18T18:28:54.739Z,14.35
2018-02-18T18:31:23.034Z,14.80
2018-02-18T18:33:53.198Z,16.42
2018-02-18T18:36:22.987Z,13.82
2018-02-18T18:38:54.397Z,14.40
2018-02-18T18:41:26.634Z,15.55
2018-02-18T18:43:55.570Z,15.20
2018-02-18T18:46:25.569Z,15.13
2018-02-18T18:48:55.354Z,15.13
2018-02-18T18:51:26.026Z,16.05
2018-02-18T18:53:59.848Z,15.18
2018-02-18T18:56:32.809Z,16.23
2018-02-18T18:59:03.382Z,15.50
2018-02-18T19:01:35.229Z,15.15
2018-02-18T19:04:07.357Z,15.10
2018-02-18T19:06:39.323Z,14.43
2018-02-18T19:09:09.004Z,14.25
2018-02-18T19:11:39.425Z,15.05
2018-02-18T19:14:09.942Z,17.67
2018-02-18T19:16:41.562Z,17.67
2018-02-18T19:19:14.081Z,15.50
2018-02-18T19:21:51.432Z,14.65
2018-02-18T19:24:21.431Z,15.60
2018-02-18T19:26:53.084Z,15.07
2018-02-18T19:29:23.202Z,16.83
2018-02-18T19:31:51.867Z,17.10
2018-02-18T19:34:22.317Z,14.20
2018-02-18T19:36:57.254Z,17.33
2018-02-18T19:39:27.888Z,15.20
2018-02-18T19:42:02.516Z,17.15
2018-02-18T19:44:35.363Z,17.83
2018-02-18T19:49:44.028Z,16.73
2018-02-18T19:52:24.605Z,17.58
2018-02-18T19:54:57.096Z,18.58
2018-02-18T19:57:27.418Z,18.55
2018-02-18T19:59:59.068Z,18.27
2018-02-18T20:02:31.912Z,17.17
2018-02-18T20:05:06.467Z,17.08
2018-02-18T20:07:38.397Z,17.08
2018-02-18T20:10:08.098Z,17.05
2018-02-18T20:12:42.195Z,18.35
2018-02-18T20:15:13.605Z,15.55
2018-02-18T20:17:44.241Z,16.42
2018-02-18T20:20:13.741Z,16.62
2018-02-18T20:22:45.988Z,15.95
2018-02-18T20:25:15.656Z,15.18
2018-02-18T20:30:22.029Z,17.30
2018-02-18T20:32:57.520Z,17.02
2018-02-18T20:38:01.782Z,16.95
2018-02-18T20:40:31.885Z,17.62
2018-02-18T20:43:00.974Z,17.45
2018-02-18T20:48:11.384Z,20.05
2018-02-18T20:50:41.027Z,18.73
2018-02-18T20:53:10.282Z,18.92
2018-02-18T20:55:39.380Z,17.60
2018-02-18T20:58:09.408Z,19.30
2018-02-18T21:00:38.161Z,18.20
2018-02-18T21:03:07.529Z,20.02
2018-02-18T21:05:37.403Z,18.90
2018-02-18T21:08:08.950Z,17.73
2018-02-18T21:10:43.079Z,17.48
2018-02-18T21:13:11.832Z,16.55
2018-02-18T21:15:40.300Z,17.60
2018-02-18T21:18:11.222Z,18.02
2018-02-18T21:20:39.963Z,17.83
2018-02-18T21:23:08.137Z,20.30
2018-02-18T21:25:36.193Z,22.10
2018-02-18T21:28:03.919Z,21.60
2018-02-18T21:30:32.233Z,23.35
2018-02-18T21:33:00.056Z,23.38
2018-02-18T21:35:28.381Z,23.45
2018-02-18T21:37:59.511Z,26.42
2018-02-18T21:40:26.996Z,27.02
2018-02-18T21:42:55.886Z,26.15
2018-02-18T21:45:24.616Z,25.52
2018-02-18T21:47:54.139Z,27.30
2018-02-18T21:50:24.120Z,26.73
2018-02-18T21:52:52.720Z,26.85
2018-02-18T21:55:21.716Z,24.60
2018-02-18T21:57:50.775Z,25.60
2018-02-18T22:00:19.232Z,26.23
2018-02-18T22:02:48.327Z,24.52
2018-02-18T22:05:15.866Z,26.98
2018-02-18T22:07:45.372Z,26.75
2018-02-18T22:10:14.322Z,26.10
2018-02-18T22:12:44.407Z,26.02
2018-02-18T22:15:12.987Z,27.13
2018-02-18T22:17:40.857Z,28.40
2018-02-18T22:20:11.012Z,28.67
2018-02-18T22:22:39.454Z,25.95
2018-02-18T22:25:06.946Z,30.52
2018-02-18T22:27:34.682Z,26.70
2018-02-18T22:30:03.062Z,25.80
2018-02-18T22:32:32.055Z,27.55
2018-02-18T22:34:59.711Z,26.60
2018-02-18T22:37:28.972Z,29.05
2018-02-18T22:39:56.506Z,26.10
2018-02-18T22:42:25.971Z,28.98
2018-02-18T22:44:54.965Z,28.75
2018-02-18T22:47:24.278Z,28.87
2018-02-18T22:49:51.787Z,28.52
2018-02-18T22:52:20.110Z,28.12
2018-02-18T22:54:47.675Z,28.55
2018-02-18T22:57:17.335Z,28.42
2018-02-18T22:59:52.470Z,31.40
2018-02-18T23:02:20.754Z,28.80
2018-02-18T23:04:49.084Z,30.02
2018-02-18T23:07:17.688Z,30.65
2018-02-18T23:09:46.571Z,29.83
2018-02-18T23:12:14.208Z,29.90
2018-02-18T23:14:45.262Z,32.10
2018-02-18T23:17:14.175Z,33.50
2018-02-18T23:19:42.807Z,31.55
2018-02-18T23:22:10.831Z,32.35
2018-02-18T23:24:39.969Z,31.20
2018-02-18T23:27:07.543Z,35.97
2018-02-18T23:29:35.483Z,34.72
2018-02-18T23:32:03.933Z,33.50
2018-02-18T23:34:33.201Z,34.03
2018-02-18T23:37:00.757Z,34.88
2018-02-18T23:39:28.601Z,33.05
2018-02-18T23:41:59.066Z,33.85
2018-02-18T23:44:27.158Z,35.10
2018-02-18T23:46:55.399Z,34.25
2018-02-18T23:49:26.394Z,34.33
2018-02-18T23:54:29.338Z,35.30
2018-02-18T23:56:56.910Z,33.50
2018-02-18T23:59:24.512Z,34.97
